sensor_id;sensor_type;location;lat;lon;timestamp;P1;durP1;ratioP1;P2;durP2;ratioP2
17059;SDS011;8646;49.716;9.266;2024-03-29T00:02:59;6.07;;;2.43;;
17059;SDS011;8646;49.716;9.266;2024-03-29T00:06:01;6.27;;;2.70;;
17059;SDS011;8646;49.716;9.266;2024-03-29T00:09:02;5.87;;;2.23;;
17059;SDS011;8646;49.716;9.266;2024-03-29T00:12:03;5.03;;;2.13;;
17059;SDS011;8646;49.716;9.266;2024-03-29T00:15:05;5.43;;;2.30;;
17059;SDS011;8646;49.716;9.266;2024-03-29T00:18:06;6.77;;;1.80;;
17059;SDS011;8646;49.716;9.266;2024-03-29T00:21:08;4.07;;;1.47;;
17059;SDS011;8646;49.716;9.266;2024-03-29T00:24:09;8.43;;;1.97;;
17059;SDS011;8646;49.716;9.266;2024-03-29T00:27:10;6.47;;;2.40;;
17059;SDS011;8646;49.716;9.266;2024-03-29T00:30:11;4.50;;;1.90;;
17059;SDS011;8646;49.716;9.266;2024-03-29T00:33:12;6.77;;;2.00;;
17059;SDS011;8646;49.716;9.266;2024-03-29T00:36:15;3.30;;;1.50;;
17059;SDS011;8646;49.716;9.266;2024-03-29T00:39:15;4.77;;;1.50;;
17059;SDS011;8646;49.716;9.266;2024-03-29T00:42:16;4.47;;;1.40;;
17059;SDS011;8646;49.716;9.266;2024-03-29T00:45:17;4.23;;;1.63;;
17059;SDS011;8646;49.716;9.266;2024-03-29T00:48:18;4.27;;;1.70;;
17059;SDS011;8646;49.716;9.266;2024-03-29T00:51:20;2.67;;;1.53;;
17059;SDS011;8646;49.716;9.266;2024-03-29T00:54:21;3.10;;;1.40;;
17059;SDS011;8646;49.716;9.266;2024-03-29T00:57:22;3.50;;;1.20;;
17059;SDS011;8646;49.716;9.266;2024-03-29T01:00:23;4.03;;;1.17;;
17059;SDS011;8646;49.716;9.266;2024-03-29T01:03:24;3.07;;;1.23;;
17059;SDS011;8646;49.716;9.266;2024-03-29T01:06:26;4.23;;;1.30;;
17059;SDS011;8646;49.716;9.266;2024-03-29T01:09:27;3.30;;;1.30;;
17059;SDS011;8646;49.716;9.266;2024-03-29T01:12:28;5.47;;;1.57;;
17059;SDS011;8646;49.716;9.266;2024-03-29T01:15:28;3.30;;;1.30;;
17059;SDS011;8646;49.716;9.266;2024-03-29T01:18:29;4.80;;;1.30;;
17059;SDS011;8646;49.716;9.266;2024-03-29T01:21:31;2.47;;;1.20;;
17059;SDS011;8646;49.716;9.266;2024-03-29T01:24:32;3.50;;;1.00;;
17059;SDS011;8646;49.716;9.266;2024-03-29T01:27:33;3.87;;;1.40;;
17059;SDS011;8646;49.716;9.266;2024-03-29T01:30:34;4.60;;;1.40;;
17059;SDS011;8646;49.716;9.266;2024-03-29T01:33:35;4.03;;;1.40;;
17059;SDS011;8646;49.716;9.266;2024-03-29T01:36:38;2.87;;;1.33;;
17059;SDS011;8646;49.716;9.266;2024-03-29T01:39:39;6.60;;;1.40;;
17059;SDS011;8646;49.716;9.266;2024-03-29T01:42:39;3.10;;;1.00;;
17059;SDS011;8646;49.716;9.266;2024-03-29T01:45:41;4.33;;;1.60;;
17059;SDS011;8646;49.716;9.266;2024-03-29T01:48:43;3.80;;;1.40;;
17059;SDS011;8646;49.716;9.266;2024-03-29T01:51:46;6.40;;;1.57;;
17059;SDS011;8646;49.716;9.266;2024-03-29T01:54:49;5.13;;;1.80;;
17059;SDS011;8646;49.716;9.266;2024-03-29T01:57:51;3.30;;;1.23;;
17059;SDS011;8646;49.716;9.266;2024-03-29T02:00:54;4.57;;;1.70;;
17059;SDS011;8646;49.716;9.266;2024-03-29T02:03:58;4.63;;;1.50;;
17059;SDS011;8646;49.716;9.266;2024-03-29T02:07:01;3.03;;;1.40;;
17059;SDS011;8646;49.716;9.266;2024-03-29T02:10:05;4.50;;;1.27;;
17059;SDS011;8646;49.716;9.266;2024-03-29T02:13:08;2.27;;;1.10;;
17059;SDS011;8646;49.716;9.266;2024-03-29T02:16:10;5.57;;;1.50;;
17059;SDS011;8646;49.716;9.266;2024-03-29T02:19:12;2.03;;;1.10;;
17059;SDS011;8646;49.716;9.266;2024-03-29T02:22:15;2.80;;;1.20;;
17059;SDS011;8646;49.716;9.266;2024-03-29T02:25:20;5.10;;;1.40;;
17059;SDS011;8646;49.716;9.266;2024-03-29T02:28:22;2.70;;;1.10;;
17059;SDS011;8646;49.716;9.266;2024-03-29T02:31:26;2.20;;;1.20;;
17059;SDS011;8646;49.716;9.266;2024-03-29T02:34:27;3.13;;;1.23;;
17059;SDS011;8646;49.716;9.266;2024-03-29T02:37:29;2.47;;;1.10;;
17059;SDS011;8646;49.716;9.266;2024-03-29T02:40:32;6.30;;;1.20;;
17059;SDS011;8646;49.716;9.266;2024-03-29T02:43:34;1.93;;;0.97;;
17059;SDS011;8646;49.716;9.266;2024-03-29T02:46:36;8.40;;;1.10;;
17059;SDS011;8646;49.716;9.266;2024-03-29T02:49:38;2.80;;;1.10;;
17059;SDS011;8646;49.716;9.266;2024-03-29T02:52:39;3.93;;;1.33;;
17059;SDS011;8646;49.716;9.266;2024-03-29T02:55:42;2.57;;;1.13;;
17059;SDS011;8646;49.716;9.266;2024-03-29T02:58:43;3.17;;;1.13;;
17059;SDS011;8646;49.716;9.266;2024-03-29T03:01:45;2.43;;;1.00;;
17059;SDS011;8646;49.716;9.266;2024-03-29T03:04:45;3.60;;;1.10;;
17059;SDS011;8646;49.716;9.266;2024-03-29T03:07:47;3.03;;;1.37;;
17059;SDS011;8646;49.716;9.266;2024-03-29T03:11:08;3.43;;;0.97;;
17059;SDS011;8646;49.716;9.266;2024-03-29T03:14:10;2.93;;;1.50;;
17059;SDS011;8646;49.716;9.266;2024-03-29T03:17:11;2.27;;;0.90;;
17059;SDS011;8646;49.716;9.266;2024-03-29T03:20:13;3.50;;;1.07;;
17059;SDS011;8646;49.716;9.266;2024-03-29T03:23:16;2.33;;;1.00;;
17059;SDS011;8646;49.716;9.266;2024-03-29T03:26:19;8.73;;;1.50;;
17059;SDS011;8646;49.716;9.266;2024-03-29T03:29:20;3.20;;;1.23;;
17059;SDS011;8646;49.716;9.266;2024-03-29T03:32:22;4.93;;;1.30;;
17059;SDS011;8646;49.716;9.266;2024-03-29T03:35:23;4.17;;;1.37;;
17059;SDS011;8646;49.716;9.266;2024-03-29T03:38:25;4.23;;;1.33;;
17059;SDS011;8646;49.716;9.266;2024-03-29T03:41:28;4.53;;;1.33;;
17059;SDS011;8646;49.716;9.266;2024-03-29T03:44:29;5.27;;;1.33;;
17059;SDS011;8646;49.716;9.266;2024-03-29T03:47:30;5.73;;;1.33;;
17059;SDS011;8646;49.716;9.266;2024-03-29T03:50:31;1.73;;;1.00;;
17059;SDS011;8646;49.716;9.266;2024-03-29T03:53:33;2.00;;;0.97;;
17059;SDS011;8646;49.716;9.266;2024-03-29T03:56:35;2.90;;;1.30;;
17059;SDS011;8646;49.716;9.266;2024-03-29T03:59:37;2.73;;;0.90;;
17059;SDS011;8646;49.716;9.266;2024-03-29T04:02:38;3.87;;;1.13;;
17059;SDS011;8646;49.716;9.266;2024-03-29T04:05:40;3.50;;;1.10;;
17059;SDS011;8646;49.716;9.266;2024-03-29T04:08:41;6.23;;;1.17;;
17059;SDS011;8646;49.716;9.266;2024-03-29T04:11:46;6.13;;;1.33;;
17059;SDS011;8646;49.716;9.266;2024-03-29T04:14:47;2.70;;;0.97;;
17059;SDS011;8646;49.716;9.266;2024-03-29T04:17:49;4.93;;;1.60;;
17059;SDS011;8646;49.716;9.266;2024-03-29T04:20:55;5.67;;;1.53;;
17059;SDS011;8646;49.716;9.266;2024-03-29T04:23:57;4.30;;;1.10;;
17059;SDS011;8646;49.716;9.266;2024-03-29T04:26:59;4.07;;;1.50;;
17059;SDS011;8646;49.716;9.266;2024-03-29T04:30:01;3.13;;;1.10;;
17059;SDS011;8646;49.716;9.266;2024-03-29T04:33:03;3.47;;;1.13;;
17059;SDS011;8646;49.716;9.266;2024-03-29T04:36:05;4.73;;;1.50;;
17059;SDS011;8646;49.716;9.266;2024-03-29T04:39:07;4.43;;;1.70;;
17059;SDS011;8646;49.716;9.266;2024-03-29T04:42:10;2.60;;;1.00;;
17059;SDS011;8646;49.716;9.266;2024-03-29T04:45:12;5.67;;;1.60;;
17059;SDS011;8646;49.716;9.266;2024-03-29T04:48:14;3.93;;;1.20;;
17059;SDS011;8646;49.716;9.266;2024-03-29T04:51:16;4.90;;;1.30;;
17059;SDS011;8646;49.716;9.266;2024-03-29T04:54:18;3.40;;;0.80;;
17059;SDS011;8646;49.716;9.266;2024-03-29T04:57:21;3.17;;;0.83;;
17059;SDS011;8646;49.716;9.266;2024-03-29T05:00:23;3.87;;;1.17;;
17059;SDS011;8646;49.716;9.266;2024-03-29T05:03:24;2.80;;;1.20;;
17059;SDS011;8646;49.716;9.266;2024-03-29T05:06:26;2.53;;;0.90;;
17059;SDS011;8646;49.716;9.266;2024-03-29T05:09:28;3.90;;;1.27;;
17059;SDS011;8646;49.716;9.266;2024-03-29T05:12:31;2.20;;;0.90;;
17059;SDS011;8646;49.716;9.266;2024-03-29T05:15:33;2.33;;;0.80;;
17059;SDS011;8646;49.716;9.266;2024-03-29T05:18:35;3.60;;;1.20;;
17059;SDS011;8646;49.716;9.266;2024-03-29T05:21:37;1.67;;;0.70;;
17059;SDS011;8646;49.716;9.266;2024-03-29T05:24:38;3.40;;;1.10;;
17059;SDS011;8646;49.716;9.266;2024-03-29T05:27:41;4.47;;;1.30;;
17059;SDS011;8646;49.716;9.266;2024-03-29T05:30:43;2.27;;;1.20;;
17059;SDS011;8646;49.716;9.266;2024-03-29T05:33:45;2.53;;;1.20;;
17059;SDS011;8646;49.716;9.266;2024-03-29T05:36:47;4.37;;;1.20;;
17059;SDS011;8646;49.716;9.266;2024-03-29T05:39:48;2.87;;;1.17;;
17059;SDS011;8646;49.716;9.266;2024-03-29T05:43:00;2.20;;;1.10;;
17059;SDS011;8646;49.716;9.266;2024-03-29T05:46:02;8.10;;;1.50;;
17059;SDS011;8646;49.716;9.266;2024-03-29T05:49:04;5.87;;;1.20;;
17059;SDS011;8646;49.716;9.266;2024-03-29T05:52:05;8.40;;;1.13;;
17059;SDS011;8646;49.716;9.266;2024-03-29T05:55:07;3.20;;;1.17;;
17059;SDS011;8646;49.716;9.266;2024-03-29T05:58:11;2.93;;;1.20;;
17059;SDS011;8646;49.716;9.266;2024-03-29T06:01:17;2.03;;;0.97;;
17059;SDS011;8646;49.716;9.266;2024-03-29T06:04:19;1.47;;;0.97;;
17059;SDS011;8646;49.716;9.266;2024-03-29T06:07:29;2.50;;;0.93;;
17059;SDS011;8646;49.716;9.266;2024-03-29T06:10:33;2.00;;;1.00;;
17059;SDS011;8646;49.716;9.266;2024-03-29T06:13:36;2.73;;;1.10;;
17059;SDS011;8646;49.716;9.266;2024-03-29T06:16:55;2.80;;;1.13;;
17059;SDS011;8646;49.716;9.266;2024-03-29T06:20:14;4.63;;;1.20;;
17059;SDS011;8646;49.716;9.266;2024-03-29T06:23:15;3.93;;;1.20;;
17059;SDS011;8646;49.716;9.266;2024-03-29T06:26:17;2.80;;;1.17;;
17059;SDS011;8646;49.716;9.266;2024-03-29T06:29:20;2.07;;;0.90;;
17059;SDS011;8646;49.716;9.266;2024-03-29T06:32:22;3.27;;;1.00;;
17059;SDS011;8646;49.716;9.266;2024-03-29T06:35:24;2.67;;;1.03;;
17059;SDS011;8646;49.716;9.266;2024-03-29T06:38:25;3.07;;;1.17;;
17059;SDS011;8646;49.716;9.266;2024-03-29T06:41:27;2.70;;;1.10;;
17059;SDS011;8646;49.716;9.266;2024-03-29T06:44:30;3.83;;;1.23;;
17059;SDS011;8646;49.716;9.266;2024-03-29T06:47:32;2.60;;;0.90;;
17059;SDS011;8646;49.716;9.266;2024-03-29T06:50:34;2.63;;;1.03;;
17059;SDS011;8646;49.716;9.266;2024-03-29T06:53:36;3.13;;;1.30;;
17059;SDS011;8646;49.716;9.266;2024-03-29T06:56:38;2.13;;;1.03;;
17059;SDS011;8646;49.716;9.266;2024-03-29T06:59:41;5.13;;;1.90;;
17059;SDS011;8646;49.716;9.266;2024-03-29T07:02:43;4.57;;;1.50;;
17059;SDS011;8646;49.716;9.266;2024-03-29T07:05:45;4.67;;;1.37;;
17059;SDS011;8646;49.716;9.266;2024-03-29T07:08:47;4.13;;;1.60;;
17059;SDS011;8646;49.716;9.266;2024-03-29T07:11:50;20.00;;;11.57;;
17059;SDS011;8646;49.716;9.266;2024-03-29T07:14:54;4.70;;;1.20;;
17059;SDS011;8646;49.716;9.266;2024-03-29T07:17:56;1.33;;;0.70;;
17059;SDS011;8646;49.716;9.266;2024-03-29T07:20:58;3.60;;;1.33;;
17059;SDS011;8646;49.716;9.266;2024-03-29T07:24:00;2.27;;;0.70;;
17059;SDS011;8646;49.716;9.266;2024-03-29T07:27:02;2.30;;;0.90;;
17059;SDS011;8646;49.716;9.266;2024-03-29T07:30:06;4.93;;;1.40;;
17059;SDS011;8646;49.716;9.266;2024-03-29T07:33:10;3.33;;;1.70;;
17059;SDS011;8646;49.716;9.266;2024-03-29T07:36:15;1.50;;;1.10;;
17059;SDS011;8646;49.716;9.266;2024-03-29T07:39:17;4.27;;;2.03;;
17059;SDS011;8646;49.716;9.266;2024-03-29T07:42:19;5.17;;;1.30;;
17059;SDS011;8646;49.716;9.266;2024-03-29T07:45:22;5.33;;;2.80;;
17059;SDS011;8646;49.716;9.266;2024-03-29T07:48:24;4.67;;;2.30;;
17059;SDS011;8646;49.716;9.266;2024-03-29T07:51:25;1.63;;;0.80;;
17059;SDS011;8646;49.716;9.266;2024-03-29T07:54:27;2.60;;;0.70;;
17059;SDS011;8646;49.716;9.266;2024-03-29T07:57:29;1.40;;;0.80;;
17059;SDS011;8646;49.716;9.266;2024-03-29T08:00:33;7.77;;;1.00;;
17059;SDS011;8646;49.716;9.266;2024-03-29T08:03:35;1.90;;;1.10;;
17059;SDS011;8646;49.716;9.266;2024-03-29T08:06:37;1.73;;;0.90;;
17059;SDS011;8646;49.716;9.266;2024-03-29T08:09:38;2.83;;;0.93;;
17059;SDS011;8646;49.716;9.266;2024-03-29T08:12:40;1.67;;;1.20;;
17059;SDS011;8646;49.716;9.266;2024-03-29T08:15:43;3.47;;;1.00;;
17059;SDS011;8646;49.716;9.266;2024-03-29T08:18:45;2.07;;;1.13;;
17059;SDS011;8646;49.716;9.266;2024-03-29T08:21:48;4.13;;;1.57;;
17059;SDS011;8646;49.716;9.266;2024-03-29T08:24:50;3.80;;;1.30;;
17059;SDS011;8646;49.716;9.266;2024-03-29T08:27:52;3.83;;;1.23;;
17059;SDS011;8646;49.716;9.266;2024-03-29T08:31:00;1.87;;;1.10;;
17059;SDS011;8646;49.716;9.266;2024-03-29T08:34:03;16.93;;;9.97;;
17059;SDS011;8646;49.716;9.266;2024-03-29T08:37:07;5.63;;;2.70;;
17059;SDS011;8646;49.716;9.266;2024-03-29T08:40:09;4.20;;;2.43;;
17059;SDS011;8646;49.716;9.266;2024-03-29T08:43:12;3.73;;;1.40;;
17059;SDS011;8646;49.716;9.266;2024-03-29T08:46:15;17.23;;;7.13;;
17059;SDS011;8646;49.716;9.266;2024-03-29T08:49:17;10.60;;;3.47;;
17059;SDS011;8646;49.716;9.266;2024-03-29T08:52:19;3.23;;;1.73;;
17059;SDS011;8646;49.716;9.266;2024-03-29T08:55:21;6.50;;;2.23;;
17059;SDS011;8646;49.716;9.266;2024-03-29T08:58:23;7.43;;;2.83;;
17059;SDS011;8646;49.716;9.266;2024-03-29T09:01:27;4.17;;;1.60;;
17059;SDS011;8646;49.716;9.266;2024-03-29T09:04:29;8.67;;;1.90;;
17059;SDS011;8646;49.716;9.266;2024-03-29T09:07:30;3.73;;;1.70;;
17059;SDS011;8646;49.716;9.266;2024-03-29T09:10:32;2.87;;;1.60;;
17059;SDS011;8646;49.716;9.266;2024-03-29T09:13:34;3.07;;;2.00;;
17059;SDS011;8646;49.716;9.266;2024-03-29T09:16:37;4.80;;;2.50;;
17059;SDS011;8646;49.716;9.266;2024-03-29T09:19:40;6.67;;;2.67;;
17059;SDS011;8646;49.716;9.266;2024-03-29T09:22:42;4.60;;;1.80;;
17059;SDS011;8646;49.716;9.266;2024-03-29T09:25:44;3.47;;;1.60;;
17059;SDS011;8646;49.716;9.266;2024-03-29T09:28:46;5.87;;;1.80;;
17059;SDS011;8646;49.716;9.266;2024-03-29T09:31:49;6.40;;;1.70;;
17059;SDS011;8646;49.716;9.266;2024-03-29T09:34:51;10.03;;;2.60;;
17059;SDS011;8646;49.716;9.266;2024-03-29T09:37:53;6.97;;;1.77;;
17059;SDS011;8646;49.716;9.266;2024-03-29T09:40:59;15.93;;;5.43;;
17059;SDS011;8646;49.716;9.266;2024-03-29T09:44:08;5.13;;;2.83;;
17059;SDS011;8646;49.716;9.266;2024-03-29T09:47:13;18.70;;;2.60;;
17059;SDS011;8646;49.716;9.266;2024-03-29T09:50:16;10.73;;;2.00;;
17059;SDS011;8646;49.716;9.266;2024-03-29T09:53:18;3.27;;;1.80;;
17059;SDS011;8646;49.716;9.266;2024-03-29T09:56:22;3.87;;;1.90;;
17059;SDS011;8646;49.716;9.266;2024-03-29T09:59:27;6.37;;;2.20;;
17059;SDS011;8646;49.716;9.266;2024-03-29T10:02:31;3.63;;;1.60;;
17059;SDS011;8646;49.716;9.266;2024-03-29T10:05:34;4.83;;;2.70;;
17059;SDS011;8646;49.716;9.266;2024-03-29T10:08:37;12.60;;;3.73;;
17059;SDS011;8646;49.716;9.266;2024-03-29T10:11:39;10.50;;;5.97;;
17059;SDS011;8646;49.716;9.266;2024-03-29T10:14:44;6.07;;;2.97;;
17059;SDS011;8646;49.716;9.266;2024-03-29T10:17:50;4.33;;;2.80;;
17059;SDS011;8646;49.716;9.266;2024-03-29T10:21:02;8.30;;;5.07;;
17059;SDS011;8646;49.716;9.266;2024-03-29T10:24:10;6.10;;;1.70;;
17059;SDS011;8646;49.716;9.266;2024-03-29T10:27:14;7.20;;;4.80;;
17059;SDS011;8646;49.716;9.266;2024-03-29T10:30:16;8.17;;;4.93;;
17059;SDS011;8646;49.716;9.266;2024-03-29T10:33:22;8.40;;;4.40;;
17059;SDS011;8646;49.716;9.266;2024-03-29T10:36:25;1.83;;;1.07;;
17059;SDS011;8646;49.716;9.266;2024-03-29T10:39:28;2.53;;;1.10;;
17059;SDS011;8646;49.716;9.266;2024-03-29T10:42:30;4.47;;;2.00;;
17059;SDS011;8646;49.716;9.266;2024-03-29T10:45:34;10.33;;;3.70;;
17059;SDS011;8646;49.716;9.266;2024-03-29T10:48:39;3.97;;;2.07;;
17059;SDS011;8646;49.716;9.266;2024-03-29T10:51:42;17.37;;;11.23;;
17059;SDS011;8646;49.716;9.266;2024-03-29T10:54:45;11.67;;;4.90;;
17059;SDS011;8646;49.716;9.266;2024-03-29T10:57:46;2.23;;;1.10;;
17059;SDS011;8646;49.716;9.266;2024-03-29T11:00:53;1.97;;;0.90;;
17059;SDS011;8646;49.716;9.266;2024-03-29T11:04:01;1.43;;;0.70;;
17059;SDS011;8646;49.716;9.266;2024-03-29T11:07:13;14.53;;;8.77;;
17059;SDS011;8646;49.716;9.266;2024-03-29T11:10:24;1.70;;;0.80;;
17059;SDS011;8646;49.716;9.266;2024-03-29T11:13:31;3.20;;;0.90;;
17059;SDS011;8646;49.716;9.266;2024-03-29T11:16:35;2.13;;;1.20;;
17059;SDS011;8646;49.716;9.266;2024-03-29T11:19:41;2.97;;;2.00;;
17059;SDS011;8646;49.716;9.266;2024-03-29T11:22:43;1.10;;;0.70;;
17059;SDS011;8646;49.716;9.266;2024-03-29T11:25:48;1.90;;;0.80;;
17059;SDS011;8646;49.716;9.266;2024-03-29T11:28:53;1.30;;;1.00;;
17059;SDS011;8646;49.716;9.266;2024-03-29T11:31:57;3.23;;;0.90;;
17059;SDS011;8646;49.716;9.266;2024-03-29T11:35:00;1.97;;;1.00;;
17059;SDS011;8646;49.716;9.266;2024-03-29T11:38:03;2.20;;;0.90;;
17059;SDS011;8646;49.716;9.266;2024-03-29T11:41:05;2.83;;;1.23;;
17059;SDS011;8646;49.716;9.266;2024-03-29T11:44:08;4.17;;;2.60;;
17059;SDS011;8646;49.716;9.266;2024-03-29T11:47:10;4.53;;;2.43;;
17059;SDS011;8646;49.716;9.266;2024-03-29T11:50:17;6.20;;;2.77;;
17059;SDS011;8646;49.716;9.266;2024-03-29T11:53:19;2.47;;;1.30;;
17059;SDS011;8646;49.716;9.266;2024-03-29T11:56:22;2.23;;;1.30;;
17059;SDS011;8646;49.716;9.266;2024-03-29T11:59:24;2.33;;;1.00;;
17059;SDS011;8646;49.716;9.266;2024-03-29T12:02:26;4.80;;;1.30;;
17059;SDS011;8646;49.716;9.266;2024-03-29T12:05:29;4.53;;;1.50;;
17059;SDS011;8646;49.716;9.266;2024-03-29T12:08:32;4.73;;;1.33;;
17059;SDS011;8646;49.716;9.266;2024-03-29T12:11:35;3.50;;;2.00;;
17059;SDS011;8646;49.716;9.266;2024-03-29T12:14:37;2.63;;;1.97;;
17059;SDS011;8646;49.716;9.266;2024-03-29T12:17:39;4.43;;;1.60;;
17059;SDS011;8646;49.716;9.266;2024-03-29T12:20:44;2.77;;;1.47;;
17059;SDS011;8646;49.716;9.266;2024-03-29T12:23:49;9.53;;;5.03;;
17059;SDS011;8646;49.716;9.266;2024-03-29T12:26:51;7.37;;;2.90;;
17059;SDS011;8646;49.716;9.266;2024-03-29T12:29:53;4.37;;;2.10;;
17059;SDS011;8646;49.716;9.266;2024-03-29T12:33:02;2.90;;;1.90;;
17059;SDS011;8646;49.716;9.266;2024-03-29T12:36:05;5.63;;;1.97;;
17059;SDS011;8646;49.716;9.266;2024-03-29T12:39:14;4.80;;;1.90;;
17059;SDS011;8646;49.716;9.266;2024-03-29T12:42:19;3.47;;;1.90;;
17059;SDS011;8646;49.716;9.266;2024-03-29T12:45:21;3.63;;;1.90;;
17059;SDS011;8646;49.716;9.266;2024-03-29T12:48:23;4.10;;;1.60;;
17059;SDS011;8646;49.716;9.266;2024-03-29T12:51:28;5.40;;;2.37;;
17059;SDS011;8646;49.716;9.266;2024-03-29T12:54:30;5.77;;;2.40;;
17059;SDS011;8646;49.716;9.266;2024-03-29T12:57:32;3.73;;;1.83;;
17059;SDS011;8646;49.716;9.266;2024-03-29T13:00:34;8.37;;;1.83;;
17059;SDS011;8646;49.716;9.266;2024-03-29T13:03:36;5.07;;;2.17;;
17059;SDS011;8646;49.716;9.266;2024-03-29T13:06:42;3.63;;;1.67;;
17059;SDS011;8646;49.716;9.266;2024-03-29T13:09:44;3.37;;;1.80;;
17059;SDS011;8646;49.716;9.266;2024-03-29T13:12:46;4.90;;;1.90;;
17059;SDS011;8646;49.716;9.266;2024-03-29T13:15:50;4.53;;;2.70;;
17059;SDS011;8646;49.716;9.266;2024-03-29T13:18:52;7.43;;;2.90;;
17059;SDS011;8646;49.716;9.266;2024-03-29T13:21:55;9.53;;;3.90;;
17059;SDS011;8646;49.716;9.266;2024-03-29T13:24:59;7.37;;;2.60;;
17059;SDS011;8646;49.716;9.266;2024-03-29T13:28:01;6.10;;;2.63;;
17059;SDS011;8646;49.716;9.266;2024-03-29T13:31:03;8.97;;;4.30;;
17059;SDS011;8646;49.716;9.266;2024-03-29T13:34:05;7.93;;;3.77;;
17059;SDS011;8646;49.716;9.266;2024-03-29T13:37:13;22.77;;;10.00;;
17059;SDS011;8646;49.716;9.266;2024-03-29T13:40:16;25.43;;;10.17;;
17059;SDS011;8646;49.716;9.266;2024-03-29T13:43:19;21.33;;;9.60;;
17059;SDS011;8646;49.716;9.266;2024-03-29T13:46:22;6.30;;;2.60;;
17059;SDS011;8646;49.716;9.266;2024-03-29T13:49:25;4.83;;;3.07;;
17059;SDS011;8646;49.716;9.266;2024-03-29T13:52:33;5.20;;;2.27;;
17059;SDS011;8646;49.716;9.266;2024-03-29T13:55:35;7.07;;;3.50;;
17059;SDS011;8646;49.716;9.266;2024-03-29T13:58:37;14.27;;;5.47;;
17059;SDS011;8646;49.716;9.266;2024-03-29T14:01:39;3.93;;;2.53;;
17059;SDS011;8646;49.716;9.266;2024-03-29T14:04:41;4.63;;;2.20;;
17059;SDS011;8646;49.716;9.266;2024-03-29T14:07:44;4.50;;;2.50;;
17059;SDS011;8646;49.716;9.266;2024-03-29T14:10:49;13.57;;;5.40;;
17059;SDS011;8646;49.716;9.266;2024-03-29T14:13:53;8.87;;;4.47;;
17059;SDS011;8646;49.716;9.266;2024-03-29T14:16:56;8.60;;;4.00;;
17059;SDS011;8646;49.716;9.266;2024-03-29T14:19:58;9.57;;;3.97;;
17059;SDS011;8646;49.716;9.266;2024-03-29T14:23:02;4.53;;;2.93;;
17059;SDS011;8646;49.716;9.266;2024-03-29T14:26:06;5.97;;;2.90;;
17059;SDS011;8646;49.716;9.266;2024-03-29T14:29:08;18.83;;;9.33;;
17059;SDS011;8646;49.716;9.266;2024-03-29T14:32:12;5.03;;;2.77;;
17059;SDS011;8646;49.716;9.266;2024-03-29T14:35:14;5.30;;;2.40;;
17059;SDS011;8646;49.716;9.266;2024-03-29T14:38:18;6.87;;;5.03;;
17059;SDS011;8646;49.716;9.266;2024-03-29T14:41:21;3.37;;;1.87;;
17059;SDS011;8646;49.716;9.266;2024-03-29T14:44:23;4.10;;;1.93;;
17059;SDS011;8646;49.716;9.266;2024-03-29T14:47:26;6.80;;;2.80;;
17059;SDS011;8646;49.716;9.266;2024-03-29T14:50:27;4.83;;;2.47;;
17059;SDS011;8646;49.716;9.266;2024-03-29T14:53:31;4.40;;;2.90;;
17059;SDS011;8646;49.716;9.266;2024-03-29T14:56:33;6.03;;;3.07;;
17059;SDS011;8646;49.716;9.266;2024-03-29T14:59:35;5.00;;;2.70;;
17059;SDS011;8646;49.716;9.266;2024-03-29T15:02:39;4.60;;;2.70;;
17059;SDS011;8646;49.716;9.266;2024-03-29T15:05:41;3.00;;;2.33;;
17059;SDS011;8646;49.716;9.266;2024-03-29T15:08:44;4.63;;;2.67;;
17059;SDS011;8646;49.716;9.266;2024-03-29T15:11:46;6.53;;;3.20;;
17059;SDS011;8646;49.716;9.266;2024-03-29T15:14:48;5.77;;;3.73;;
17059;SDS011;8646;49.716;9.266;2024-03-29T15:17:50;5.03;;;2.70;;
17059;SDS011;8646;49.716;9.266;2024-03-29T15:20:53;14.27;;;7.47;;
17059;SDS011;8646;49.716;9.266;2024-03-29T15:23:58;6.83;;;4.50;;
17059;SDS011;8646;49.716;9.266;2024-03-29T15:27:00;10.93;;;3.40;;
17059;SDS011;8646;49.716;9.266;2024-03-29T15:30:03;8.07;;;3.17;;
17059;SDS011;8646;49.716;9.266;2024-03-29T15:33:05;8.20;;;3.07;;
17059;SDS011;8646;49.716;9.266;2024-03-29T15:36:07;4.27;;;2.73;;
17059;SDS011;8646;49.716;9.266;2024-03-29T15:39:14;4.30;;;2.87;;
17059;SDS011;8646;49.716;9.266;2024-03-29T15:42:20;4.80;;;2.80;;
17059;SDS011;8646;49.716;9.266;2024-03-29T15:45:22;9.57;;;4.80;;
17059;SDS011;8646;49.716;9.266;2024-03-29T15:48:24;6.40;;;3.30;;
17059;SDS011;8646;49.716;9.266;2024-03-29T15:51:26;6.70;;;3.73;;
17059;SDS011;8646;49.716;9.266;2024-03-29T15:54:29;6.13;;;3.13;;
17059;SDS011;8646;49.716;9.266;2024-03-29T15:57:32;5.10;;;3.30;;
17059;SDS011;8646;49.716;9.266;2024-03-29T16:00:34;8.80;;;3.63;;
17059;SDS011;8646;49.716;9.266;2024-03-29T16:03:38;6.43;;;3.87;;
17059;SDS011;8646;49.716;9.266;2024-03-29T16:06:40;7.03;;;3.37;;
17059;SDS011;8646;49.716;9.266;2024-03-29T16:09:43;5.43;;;3.30;;
17059;SDS011;8646;49.716;9.266;2024-03-29T16:12:45;8.17;;;4.37;;
17059;SDS011;8646;49.716;9.266;2024-03-29T16:15:47;8.50;;;4.23;;
17059;SDS011;8646;49.716;9.266;2024-03-29T16:18:49;12.30;;;7.20;;
17059;SDS011;8646;49.716;9.266;2024-03-29T16:21:51;5.90;;;3.37;;
17059;SDS011;8646;49.716;9.266;2024-03-29T16:24:54;11.80;;;6.40;;
17059;SDS011;8646;49.716;9.266;2024-03-29T16:27:56;6.77;;;4.10;;
17059;SDS011;8646;49.716;9.266;2024-03-29T16:30:57;12.43;;;4.40;;
17059;SDS011;8646;49.716;9.266;2024-03-29T16:33:59;11.63;;;5.67;;
17059;SDS011;8646;49.716;9.266;2024-03-29T16:37:01;9.77;;;5.73;;
17059;SDS011;8646;49.716;9.266;2024-03-29T16:40:06;8.63;;;5.10;;
17059;SDS011;8646;49.716;9.266;2024-03-29T16:43:07;5.27;;;3.40;;
17059;SDS011;8646;49.716;9.266;2024-03-29T16:46:13;5.37;;;4.17;;
17059;SDS011;8646;49.716;9.266;2024-03-29T16:49:13;10.20;;;6.00;;
17059;SDS011;8646;49.716;9.266;2024-03-29T16:52:15;6.70;;;3.97;;
17059;SDS011;8646;49.716;9.266;2024-03-29T16:55:17;11.27;;;6.87;;
17059;SDS011;8646;49.716;9.266;2024-03-29T16:58:19;13.67;;;8.27;;
17059;SDS011;8646;49.716;9.266;2024-03-29T17:01:20;14.37;;;9.33;;
17059;SDS011;8646;49.716;9.266;2024-03-29T17:04:22;15.67;;;9.80;;
17059;SDS011;8646;49.716;9.266;2024-03-29T17:07:23;19.87;;;11.50;;
17059;SDS011;8646;49.716;9.266;2024-03-29T17:10:26;25.37;;;13.00;;
17059;SDS011;8646;49.716;9.266;2024-03-29T17:13:27;20.70;;;10.73;;
17059;SDS011;8646;49.716;9.266;2024-03-29T17:16:29;17.93;;;9.10;;
17059;SDS011;8646;49.716;9.266;2024-03-29T17:19:30;16.60;;;9.00;;
17059;SDS011;8646;49.716;9.266;2024-03-29T17:22:32;24.43;;;11.60;;
17059;SDS011;8646;49.716;9.266;2024-03-29T17:25:35;9.97;;;6.93;;
17059;SDS011;8646;49.716;9.266;2024-03-29T17:28:36;10.63;;;6.67;;
17059;SDS011;8646;49.716;9.266;2024-03-29T17:31:38;13.67;;;7.23;;
17059;SDS011;8646;49.716;9.266;2024-03-29T17:34:40;15.90;;;8.07;;
17059;SDS011;8646;49.716;9.266;2024-03-29T17:37:42;16.80;;;8.70;;
17059;SDS011;8646;49.716;9.266;2024-03-29T17:40:44;12.70;;;7.90;;
17059;SDS011;8646;49.716;9.266;2024-03-29T17:43:46;13.27;;;8.77;;
17059;SDS011;8646;49.716;9.266;2024-03-29T17:46:46;11.87;;;7.50;;
17059;SDS011;8646;49.716;9.266;2024-03-29T17:49:49;12.40;;;8.37;;
17059;SDS011;8646;49.716;9.266;2024-03-29T17:52:51;28.03;;;16.97;;
17059;SDS011;8646;49.716;9.266;2024-03-29T17:55:53;27.43;;;16.10;;
17059;SDS011;8646;49.716;9.266;2024-03-29T17:58:55;21.83;;;11.83;;
17059;SDS011;8646;49.716;9.266;2024-03-29T18:01:57;25.33;;;14.37;;
17059;SDS011;8646;49.716;9.266;2024-03-29T18:04:58;32.60;;;17.20;;
17059;SDS011;8646;49.716;9.266;2024-03-29T18:08:00;57.13;;;27.57;;
17059;SDS011;8646;49.716;9.266;2024-03-29T18:11:02;60.23;;;26.53;;
17059;SDS011;8646;49.716;9.266;2024-03-29T18:14:04;46.63;;;29.50;;
17059;SDS011;8646;49.716;9.266;2024-03-29T18:17:05;140.47;;;71.20;;
17059;SDS011;8646;49.716;9.266;2024-03-29T18:20:07;31.27;;;18.87;;
17059;SDS011;8646;49.716;9.266;2024-03-29T18:23:09;22.93;;;12.87;;
17059;SDS011;8646;49.716;9.266;2024-03-29T18:26:12;38.73;;;23.77;;
17059;SDS011;8646;49.716;9.266;2024-03-29T18:29:13;23.97;;;15.07;;
17059;SDS011;8646;49.716;9.266;2024-03-29T18:32:15;19.17;;;12.57;;
17059;SDS011;8646;49.716;9.266;2024-03-29T18:35:16;16.57;;;10.47;;